createdAt,value
2018-03-07T00:00:41.865Z,72.46
2018-03-07T00:03:12.233Z,72.39
2018-03-07T00:05:41.320Z,72.54
2018-03-07T00:08:11.016Z,72.71
2018-03-07T00:10:40.304Z,72.80
2018-03-07T00:13:09.375Z,72.90
2018-03-07T00:15:39.752Z,72.89
2018-03-07T00:18:09.394Z,72.70
2018-03-07T00:20:42.553Z,72.74
2018-03-07T00:23:11.658Z,72.72
2018-03-07T00:25:40.743Z,72.59
2018-03-07T00:28:09.879Z,72.57
2018-03-07T00:30:39.007Z,72.67
2018-03-07T00:33:08.440Z,72.93
2018-03-07T00:35:38.624Z,73.14
2018-03-07T00:38:08.422Z,73.24
2018-03-07T00:40:37.990Z,73.27
2018-03-07T00:43:07.076Z,73.29
2018-03-07T00:45:37.115Z,73.23
2018-03-07T00:48:06.225Z,73.22
2018-03-07T00:50:35.696Z,73.21
2018-03-07T00:53:05.467Z,73.26
2018-03-07T00:55:34.540Z,73.31
2018-03-07T00:58:03.641Z,73.30
2018-03-07T01:00:32.706Z,73.42
2018-03-07T01:03:01.881Z,73.42
2018-03-07T01:05:30.953Z,73.42
2018-03-07T01:08:00.068Z,73.27
2018-03-07T01:10:29.184Z,73.37
2018-03-07T01:12:58.281Z,73.43
2018-03-07T01:15:27.342Z,73.45
2018-03-07T01:17:56.412Z,73.50
2018-03-07T01:20:25.611Z,73.55
2018-03-07T01:22:55.219Z,73.53
2018-03-07T01:25:24.285Z,73.65
2018-03-07T01:27:53.361Z,73.59
2018-03-07T01:30:22.659Z,73.51
2018-03-07T01:32:51.738Z,73.58
2018-03-07T01:35:21.382Z,73.58
2018-03-07T01:37:50.514Z,73.65
2018-03-07T01:40:20.172Z,73.56
2018-03-07T01:42:49.668Z,73.59
2018-03-07T01:45:19.091Z,73.65
2018-03-07T01:47:48.154Z,73.62
2018-03-07T01:50:17.953Z,73.63
2018-03-07T01:52:47.800Z,73.68
2018-03-07T01:55:17.060Z,73.85
2018-03-07T01:57:46.581Z,73.80
2018-03-07T02:00:15.700Z,73.80
2018-03-07T02:02:44.831Z,73.79
2018-03-07T02:05:14.318Z,73.77
2018-03-07T02:07:43.408Z,73.67
2018-03-07T02:10:13.065Z,73.67
2018-03-07T02:12:42.188Z,73.58
2018-03-07T02:15:11.331Z,73.49
2018-03-07T02:17:40.549Z,73.51
2018-03-07T02:20:10.856Z,73.51
2018-03-07T02:22:40.525Z,73.43
2018-03-07T02:25:09.614Z,73.44
2018-03-07T02:27:38.986Z,73.48
2018-03-07T02:30:08.351Z,73.47
2018-03-07T02:32:39.014Z,73.42
2018-03-07T02:35:10.060Z,73.33
2018-03-07T02:37:39.155Z,73.33
2018-03-07T02:40:09.043Z,73.22
2018-03-07T02:42:38.761Z,73.38
2018-03-07T02:45:08.528Z,73.46
2018-03-07T02:47:38.486Z,73.68
2018-03-07T02:50:08.649Z,73.80
2018-03-07T02:52:37.899Z,73.85
2018-03-07T02:55:07.990Z,74.05
2018-03-07T02:57:39.132Z,74.11
2018-03-07T03:00:08.522Z,74.14
2018-03-07T03:02:38.714Z,74.05
2018-03-07T03:05:08.951Z,74.02
2018-03-07T03:07:39.119Z,74.00
2018-03-07T03:10:08.860Z,74.05
2018-03-07T03:12:38.967Z,74.03
2018-03-07T03:15:08.035Z,73.98
2018-03-07T03:17:37.779Z,74.14
2018-03-07T03:20:06.858Z,74.28
2018-03-07T03:22:36.259Z,74.28
2018-03-07T03:25:05.363Z,74.43
2018-03-07T03:27:34.695Z,74.46
2018-03-07T03:30:04.569Z,74.57
2018-03-07T03:32:34.406Z,74.69
2018-03-07T03:35:03.470Z,74.79
2018-03-07T03:37:32.578Z,74.95
2018-03-07T03:40:01.685Z,74.80
2018-03-07T03:42:30.740Z,74.76
2018-03-07T03:44:59.840Z,74.66
2018-03-07T03:47:28.910Z,74.58
2018-03-07T03:49:59.163Z,74.61
2018-03-07T03:52:29.599Z,74.73
2018-03-07T03:54:58.741Z,74.74
2018-03-07T03:57:28.525Z,74.71
2018-03-07T03:59:57.587Z,74.74
2018-03-07T04:02:26.750Z,74.80
2018-03-07T04:04:55.816Z,74.73
2018-03-07T04:07:24.879Z,74.72
2018-03-07T04:09:55.133Z,74.67
2018-03-07T04:12:24.203Z,74.70
2018-03-07T04:14:53.283Z,74.77
2018-03-07T04:17:22.352Z,74.92
2018-03-07T04:19:51.557Z,74.67
2018-03-07T04:22:20.651Z,74.68
2018-03-07T04:24:50.198Z,74.68
2018-03-07T04:27:19.381Z,74.66
2018-03-07T04:29:48.451Z,74.68
2018-03-07T04:32:17.522Z,74.75
2018-03-07T04:34:46.591Z,74.74
2018-03-07T04:37:15.656Z,74.70
2018-03-07T04:39:44.734Z,74.69
2018-03-07T04:42:13.907Z,74.63
2018-03-07T04:44:43.578Z,74.65
2018-03-07T04:47:14.376Z,74.74
2018-03-07T04:49:44.444Z,74.86
2018-03-07T04:52:13.510Z,74.75
2018-03-07T04:54:42.755Z,74.83
2018-03-07T04:57:12.798Z,74.94
2018-03-07T04:59:42.060Z,75.00
2018-03-07T05:02:11.212Z,75.19
2018-03-07T05:04:40.851Z,75.15
2018-03-07T05:07:10.586Z,75.23
2018-03-07T05:09:39.648Z,75.26
2018-03-07T05:12:08.740Z,75.23
2018-03-07T05:14:38.073Z,75.40
2018-03-07T05:17:07.372Z,75.50
2018-03-07T05:19:36.435Z,75.47
2018-03-07T05:22:06.288Z,75.49
2018-03-07T05:24:35.350Z,75.69
2018-03-07T05:27:04.763Z,75.47
2018-03-07T05:29:34.123Z,75.69
2018-03-07T05:32:03.254Z,75.61
2018-03-07T05:34:32.310Z,75.58
2018-03-07T05:37:01.429Z,75.88
2018-03-07T05:39:30.699Z,76.12
2018-03-07T05:41:59.764Z,76.09
2018-03-07T05:44:29.388Z,76.13
2018-03-07T05:46:59.532Z,76.43
2018-03-07T05:49:29.098Z,76.28
2018-03-07T05:51:59.753Z,76.00
2018-03-07T05:54:28.834Z,76.02
2018-03-07T05:56:58.593Z,76.16
2018-03-07T05:59:27.659Z,76.38
2018-03-07T06:01:57.578Z,76.33
2018-03-07T06:04:26.754Z,76.93
2018-03-07T06:06:56.982Z,76.74
2018-03-07T06:09:26.904Z,76.83
2018-03-07T06:11:56.626Z,76.73
2018-03-07T06:14:25.876Z,77.02
2018-03-07T06:16:55.115Z,76.65
2018-03-07T06:19:24.550Z,76.84
2018-03-07T06:21:53.707Z,77.07
2018-03-07T06:24:22.919Z,76.83
2018-03-07T06:26:51.995Z,76.94
2018-03-07T06:29:21.597Z,77.05
2018-03-07T06:31:50.943Z,77.23
2018-03-07T06:34:20.247Z,77.24
2018-03-07T06:36:49.728Z,78.01
2018-03-07T06:39:19.147Z,77.63
2018-03-07T06:41:48.609Z,77.87
2018-03-07T06:44:18.290Z,78.04
2018-03-07T06:46:48.717Z,77.94
2018-03-07T06:49:18.630Z,77.92
2018-03-07T06:51:47.787Z,77.97
2018-03-07T06:54:16.987Z,77.96
2018-03-07T06:56:47.031Z,78.06
2018-03-07T06:59:16.268Z,78.26
2018-03-07T07:01:46.404Z,78.27
2018-03-07T07:04:15.466Z,78.51
2018-03-07T07:06:45.078Z,78.30
2018-03-07T07:09:14.729Z,78.32
2018-03-07T07:11:43.923Z,78.30
2018-03-07T07:14:13.016Z,78.79
2018-03-07T07:16:42.261Z,78.50
2018-03-07T07:19:11.691Z,78.96
2018-03-07T07:21:40.882Z,78.91
2018-03-07T07:24:10.300Z,78.52
2018-03-07T07:26:40.023Z,78.58
2018-03-07T07:29:09.166Z,78.37
2018-03-07T07:31:38.239Z,78.52
2018-03-07T07:34:08.988Z,78.43
2018-03-07T07:36:38.262Z,78.56
2018-03-07T07:39:07.616Z,78.45
2018-03-07T07:41:36.802Z,78.40
2018-03-07T07:44:06.574Z,78.31
2018-03-07T07:46:35.722Z,77.86
2018-03-07T07:49:05.060Z,78.21
2018-03-07T07:51:34.295Z,78.53
2018-03-07T07:54:03.369Z,78.46
2018-03-07T07:56:32.609Z,78.36
2018-03-07T07:59:01.817Z,78.86
2018-03-07T08:01:31.798Z,78.70
2018-03-07T08:04:01.831Z,78.89
2018-03-07T08:06:31.473Z,78.70
2018-03-07T08:09:00.694Z,79.12
2018-03-07T08:11:30.514Z,79.01
2018-03-07T08:13:59.814Z,78.81
2018-03-07T08:16:29.802Z,78.90
2018-03-07T08:18:58.907Z,79.04
2018-03-07T08:21:28.377Z,78.78
2018-03-07T08:23:57.446Z,78.90
2018-03-07T08:26:26.939Z,78.85
2018-03-07T08:28:56.130Z,79.21
2018-03-07T08:31:25.422Z,78.71
2018-03-07T08:33:55.829Z,79.57
2018-03-07T08:36:25.559Z,79.50
2018-03-07T08:38:54.945Z,79.27
2018-03-07T08:41:24.594Z,79.19
2018-03-07T08:43:54.074Z,79.17
2018-03-07T08:46:24.140Z,79.48
2018-03-07T08:48:53.950Z,79.53
2018-03-07T08:51:23.663Z,79.62
2018-03-07T08:53:52.740Z,79.24
2018-03-07T08:56:22.021Z,79.26
2018-03-07T08:58:52.468Z,79.66
2018-03-07T09:01:21.537Z,79.80
2018-03-07T09:03:51.095Z,79.39
2018-03-07T09:06:21.414Z,79.36
2018-03-07T09:08:51.677Z,79.38
2018-03-07T09:11:21.364Z,79.43
2018-03-07T09:13:51.004Z,79.30
2018-03-07T09:16:20.118Z,79.06
2018-03-07T09:18:49.371Z,79.18
2018-03-07T09:21:19.015Z,79.10
2018-03-07T09:23:48.156Z,79.03
2018-03-07T09:26:17.264Z,79.25
2018-03-07T09:28:46.473Z,79.12
2018-03-07T09:31:15.940Z,79.46
2018-03-07T09:33:45.208Z,79.20
2018-03-07T09:36:15.034Z,79.28
2018-03-07T09:38:45.019Z,79.23
2018-03-07T09:41:14.130Z,78.99
2018-03-07T09:43:43.207Z,79.14
2018-03-07T09:46:12.408Z,79.32
2018-03-07T09:48:41.470Z,79.20
2018-03-07T09:51:10.610Z,79.42
2018-03-07T09:53:39.728Z,79.35
2018-03-07T09:56:08.834Z,79.11
2018-03-07T09:58:37.946Z,79.17
2018-03-07T10:01:07.214Z,79.04
2018-03-07T10:03:36.289Z,79.09
2018-03-07T10:06:05.486Z,79.16
2018-03-07T10:08:34.691Z,79.15
2018-03-07T10:11:03.975Z,79.28
2018-03-07T10:13:33.458Z,79.33
2018-03-07T10:16:02.994Z,79.47
2018-03-07T10:18:32.450Z,79.91
2018-03-07T10:21:01.812Z,79.62
2018-03-07T10:23:30.884Z,79.64
2018-03-07T10:26:00.383Z,79.64
2018-03-07T10:28:29.907Z,79.54
2018-03-07T10:30:59.060Z,79.34
2018-03-07T10:33:28.649Z,79.34
2018-03-07T10:35:57.832Z,79.36
2018-03-07T10:38:27.081Z,79.38
2018-03-07T10:40:56.625Z,79.14
2018-03-07T10:43:26.337Z,79.24
2018-03-07T10:45:57.300Z,79.17
2018-03-07T10:48:26.499Z,79.11
2018-03-07T10:50:55.646Z,79.02
2018-03-07T10:53:25.004Z,78.86
2018-03-07T10:55:54.501Z,78.87
2018-03-07T10:58:24.007Z,78.76
2018-03-07T11:00:54.065Z,78.76
2018-03-07T11:03:23.430Z,78.75
2018-03-07T11:05:52.586Z,78.88
2018-03-07T11:08:21.764Z,79.14
2018-03-07T11:10:50.963Z,78.99
2018-03-07T11:13:20.530Z,79.21
2018-03-07T11:15:49.608Z,79.46
2018-03-07T11:18:19.382Z,79.09
2018-03-07T11:20:49.107Z,79.12
2018-03-07T11:23:18.766Z,79.28
2018-03-07T11:25:48.190Z,79.41
2018-03-07T11:28:17.255Z,79.41
2018-03-07T11:30:46.343Z,79.41
2018-03-07T11:33:15.972Z,79.46
2018-03-07T11:35:45.189Z,79.18
2018-03-07T11:38:14.926Z,79.54
2018-03-07T11:40:45.636Z,79.41
2018-03-07T11:43:14.843Z,79.49
2018-03-07T11:45:44.640Z,79.57
2018-03-07T11:48:15.277Z,79.50
2018-03-07T11:50:44.397Z,79.52
2018-03-07T11:53:13.474Z,79.23
2018-03-07T11:55:42.534Z,78.99
2018-03-07T11:58:12.440Z,79.33
2018-03-07T12:00:41.821Z,78.98
2018-03-07T12:03:11.000Z,78.88
2018-03-07T12:05:40.279Z,78.72
2018-03-07T12:08:09.547Z,78.39
2018-03-07T12:10:38.825Z,78.22
2018-03-07T12:13:07.898Z,78.20
2018-03-07T12:15:36.979Z,78.19
2018-03-07T12:18:06.042Z,78.23
2018-03-07T12:20:35.108Z,78.16
2018-03-07T12:23:04.188Z,78.00
2018-03-07T12:25:33.259Z,78.02
2018-03-07T12:28:04.540Z,78.06
2018-03-07T12:30:33.611Z,78.16
2018-03-07T12:33:02.750Z,78.51
2018-03-07T12:35:31.875Z,78.34
2018-03-07T12:38:01.027Z,78.58
2018-03-07T12:40:30.167Z,78.82
2018-03-07T12:42:59.485Z,78.63
2018-03-07T12:45:28.571Z,78.35
2018-03-07T12:47:57.658Z,78.24
2018-03-07T12:50:26.725Z,78.18
2018-03-07T12:52:55.813Z,78.24
2018-03-07T12:55:24.879Z,78.37
2018-03-07T12:57:53.954Z,78.67
2018-03-07T13:00:23.023Z,78.58
2018-03-07T13:02:52.106Z,78.70
2018-03-07T13:05:21.182Z,79.33
2018-03-07T13:07:50.316Z,79.46
2018-03-07T13:10:19.972Z,79.17
2018-03-07T13:12:49.052Z,79.07
2018-03-07T13:15:18.124Z,79.11
2018-03-07T13:17:47.630Z,79.18
2018-03-07T13:20:17.055Z,79.08
2018-03-07T13:22:46.354Z,79.33
2018-03-07T13:25:15.491Z,79.42
2018-03-07T13:27:44.562Z,79.23
2018-03-07T13:30:13.663Z,79.35
2018-03-07T13:32:42.727Z,79.31
2018-03-07T13:35:11.874Z,79.26
2018-03-07T13:37:40.946Z,79.60
2018-03-07T13:40:10.021Z,79.49
2018-03-07T13:42:39.463Z,79.48
2018-03-07T13:45:08.525Z,79.43
2018-03-07T13:47:38.094Z,79.33
2018-03-07T13:50:07.168Z,79.30
2018-03-07T13:52:38.393Z,79.23
2018-03-07T13:55:07.576Z,79.23
2018-03-07T13:57:36.665Z,79.25
2018-03-07T14:00:23.209Z,79.20
2018-03-07T14:02:52.275Z,79.46
2018-03-07T14:05:23.020Z,79.61
2018-03-07T14:07:55.483Z,79.50
2018-03-07T14:10:29.015Z,79.60
2018-03-07T14:12:58.334Z,79.60
2018-03-07T14:15:27.454Z,79.65
2018-03-07T14:17:56.539Z,79.78
2018-03-07T14:20:25.755Z,79.58
2018-03-07T14:22:54.827Z,79.62
2018-03-07T14:25:23.899Z,79.57
2018-03-07T14:27:53.044Z,79.59
2018-03-07T14:30:22.372Z,79.75
2018-03-07T14:32:51.507Z,79.68
2018-03-07T14:35:20.570Z,79.66
2018-03-07T14:37:50.082Z,79.77
2018-03-07T14:40:19.254Z,79.81
2018-03-07T14:42:48.318Z,79.78
2018-03-07T14:45:17.387Z,79.89
2018-03-07T14:47:46.504Z,79.83
2018-03-07T14:50:15.571Z,79.92
2018-03-07T14:52:44.653Z,80.08
2018-03-07T14:55:13.785Z,80.08
2018-03-07T14:57:42.850Z,80.10
2018-03-07T15:00:11.919Z,80.24
2018-03-07T15:02:40.983Z,80.34
2018-03-07T15:05:10.077Z,80.29
2018-03-07T15:07:39.168Z,80.25
2018-03-07T15:10:08.600Z,80.30
2018-03-07T15:12:37.693Z,80.32
2018-03-07T15:15:06.983Z,80.56
2018-03-07T15:17:36.055Z,80.37
2018-03-07T15:20:06.654Z,80.38
2018-03-07T15:22:35.859Z,80.48
2018-03-07T15:25:05.093Z,80.39
2018-03-07T15:27:34.214Z,80.45
2018-03-07T15:30:04.912Z,80.45
2018-03-07T15:32:34.014Z,80.47
2018-03-07T15:35:08.852Z,80.67
2018-03-07T15:37:37.890Z,80.86
2018-03-07T15:40:08.577Z,80.95
2018-03-07T15:42:37.822Z,80.87
2018-03-07T15:45:06.899Z,81.00
2018-03-07T15:47:36.407Z,80.96
2018-03-07T15:50:05.479Z,80.91
2018-03-07T15:52:34.581Z,81.00
2018-03-07T15:55:03.825Z,81.00
2018-03-07T15:57:32.941Z,81.01
2018-03-07T16:00:02.000Z,80.98
2018-03-07T16:02:31.078Z,81.05
2018-03-07T16:05:00.176Z,81.07
2018-03-07T16:07:29.253Z,81.07
2018-03-07T16:09:58.325Z,81.11
2018-03-07T16:12:27.386Z,81.26
2018-03-07T16:14:56.451Z,81.28
2018-03-07T16:17:26.142Z,81.26
2018-03-07T16:19:55.517Z,81.33
2018-03-07T16:22:24.582Z,81.27
2018-03-07T16:24:53.668Z,81.16
2018-03-07T16:27:23.272Z,81.17
2018-03-07T16:29:52.948Z,81.07
2018-03-07T16:32:22.137Z,81.29
2018-03-07T16:34:51.463Z,81.23
2018-03-07T16:37:20.536Z,81.19
2018-03-07T16:39:49.641Z,81.15
2018-03-07T16:42:18.746Z,81.19
2018-03-07T16:44:47.883Z,81.27
2018-03-07T16:47:17.244Z,81.35
2018-03-07T16:49:46.338Z,81.42
2018-03-07T16:52:15.476Z,81.39
2018-03-07T16:54:44.638Z,81.34
2018-03-07T16:57:13.716Z,81.32
2018-03-07T16:59:42.792Z,81.20
2018-03-07T17:02:11.951Z,81.38
2018-03-07T17:04:41.677Z,81.50
2018-03-07T17:07:10.883Z,81.35
2018-03-07T17:09:39.978Z,81.44
2018-03-07T17:12:09.398Z,81.51
2018-03-07T17:14:38.473Z,81.39
2018-03-07T17:17:07.732Z,81.43
2018-03-07T17:19:37.130Z,81.59
2018-03-07T17:22:06.318Z,81.48
2018-03-07T17:24:35.650Z,81.50
2018-03-07T17:27:04.831Z,81.45
2018-03-07T17:29:34.600Z,81.51
2018-03-07T17:32:03.972Z,81.43
2018-03-07T17:34:33.123Z,81.57
2018-03-07T17:37:03.261Z,81.50
2018-03-07T17:39:32.598Z,81.54
2018-03-07T17:42:02.814Z,81.53
2018-03-07T17:44:32.173Z,81.55
2018-03-07T17:47:02.043Z,81.62
2018-03-07T17:49:31.246Z,81.45
2018-03-07T17:52:00.432Z,81.43
2018-03-07T17:54:29.871Z,81.45
2018-03-07T17:56:59.050Z,81.41
2018-03-07T17:59:32.760Z,81.38
2018-03-07T18:02:02.243Z,81.39
2018-03-07T18:04:31.647Z,81.49
2018-03-07T18:07:01.517Z,81.53
2018-03-07T18:09:31.760Z,81.59
2018-03-07T18:12:00.951Z,81.62
2018-03-07T18:14:30.166Z,81.62
2018-03-07T18:16:59.424Z,81.73
2018-03-07T18:19:29.394Z,81.75
2018-03-07T18:21:58.503Z,81.79
2018-03-07T18:24:27.607Z,81.97
2018-03-07T18:26:56.685Z,82.01
2018-03-07T18:29:25.879Z,82.05
2018-03-07T18:31:55.208Z,82.14
2018-03-07T18:34:24.549Z,82.05
2018-03-07T18:36:53.986Z,82.02
2018-03-07T18:39:25.181Z,82.15
2018-03-07T18:41:54.283Z,82.47
2018-03-07T18:44:24.117Z,82.67
2018-03-07T18:46:54.305Z,82.57
2018-03-07T18:49:23.840Z,82.62
2018-03-07T18:51:53.788Z,82.60
2018-03-07T18:54:22.910Z,82.61
2018-03-07T18:56:52.031Z,82.54
2018-03-07T18:59:21.814Z,82.56
2018-03-07T19:01:50.896Z,82.58
2018-03-07T19:04:19.976Z,82.67
2018-03-07T19:06:50.393Z,82.65
2018-03-07T19:09:19.975Z,82.61
2018-03-07T19:11:49.062Z,82.59
2018-03-07T19:14:18.146Z,82.57
2018-03-07T19:16:47.247Z,82.60
2018-03-07T19:19:16.367Z,82.60
2018-03-07T19:21:45.564Z,82.62
2018-03-07T19:24:15.435Z,82.73
2018-03-07T19:26:45.102Z,82.75
2018-03-07T19:29:14.787Z,82.69
2018-03-07T19:31:43.973Z,82.70
2018-03-07T19:34:13.353Z,82.70
2018-03-07T19:36:45.926Z,82.73
2018-03-07T19:39:24.405Z,82.76
2018-03-07T19:41:55.298Z,82.79
2018-03-07T19:44:24.512Z,82.88
2018-03-07T19:46:55.034Z,83.01
2018-03-07T19:49:24.370Z,83.05
2018-03-07T19:51:53.534Z,83.01
2018-03-07T19:54:23.220Z,83.02
2018-03-07T19:56:53.297Z,82.92
2018-03-07T19:59:23.280Z,82.89
2018-03-07T20:01:52.931Z,82.98
2018-03-07T20:04:22.117Z,83.06
2018-03-07T20:06:51.488Z,83.00
2018-03-07T20:09:20.658Z,82.91
2018-03-07T20:11:49.862Z,82.96
2018-03-07T20:14:19.247Z,82.92
2018-03-07T20:16:48.978Z,82.98
2018-03-07T20:19:18.493Z,82.90
2018-03-07T20:21:47.775Z,82.86
2018-03-07T20:24:16.910Z,82.96
2018-03-07T20:26:47.405Z,83.08
2018-03-07T20:29:16.691Z,83.37
2018-03-07T20:31:46.868Z,83.44
2018-03-07T20:34:16.016Z,83.42
2018-03-07T20:36:45.163Z,83.36
2018-03-07T20:39:14.238Z,83.34
2018-03-07T20:41:43.310Z,83.30
2018-03-07T20:44:12.543Z,83.27
2018-03-07T20:46:42.253Z,83.27
2018-03-07T20:49:13.604Z,83.33
2018-03-07T20:51:42.793Z,83.28
2018-03-07T20:54:11.918Z,83.04
2018-03-07T20:56:41.122Z,83.09
2018-03-07T20:59:10.597Z,83.13
2018-03-07T21:01:39.975Z,83.20
2018-03-07T21:04:09.170Z,83.34
2018-03-07T21:06:39.527Z,83.41
2018-03-07T21:09:08.611Z,83.37
2018-03-07T21:11:37.991Z,83.29
2018-03-07T21:14:07.098Z,83.40
2018-03-07T21:16:36.509Z,83.48
2018-03-07T21:19:05.906Z,83.52
2018-03-07T21:21:37.062Z,83.60
2018-03-07T21:24:07.668Z,83.59
2018-03-07T21:26:37.545Z,83.54
2018-03-07T21:29:06.731Z,83.61
2018-03-07T21:31:36.666Z,83.59
2018-03-07T21:34:05.798Z,83.52
2018-03-07T21:36:34.898Z,83.36
2018-03-07T21:39:04.078Z,83.35
2018-03-07T21:41:34.052Z,83.19
2018-03-07T21:44:03.371Z,83.22
2018-03-07T21:46:32.459Z,83.18
2018-03-07T21:49:01.553Z,83.17
2018-03-07T21:51:30.963Z,83.21
2018-03-07T21:54:00.298Z,83.21
2018-03-07T21:56:29.366Z,83.15
2018-03-07T21:58:58.859Z,83.15
2018-03-07T22:01:28.103Z,83.25
2018-03-07T22:03:58.124Z,83.25
2018-03-07T22:06:27.704Z,83.34
2018-03-07T22:08:57.822Z,83.29
2018-03-07T22:11:26.940Z,83.37
2018-03-07T22:13:56.013Z,83.32
2018-03-07T22:16:25.524Z,83.26
2018-03-07T22:18:54.723Z,83.25
2018-03-07T22:21:23.818Z,83.16
2018-03-07T22:23:52.891Z,83.12
2018-03-07T22:26:22.030Z,83.05
2018-03-07T22:28:51.106Z,82.97
2018-03-07T22:31:20.368Z,82.92
2018-03-07T22:33:49.720Z,82.99
2018-03-07T22:36:18.944Z,83.05
2018-03-07T22:38:48.013Z,83.17
2018-03-07T22:41:17.095Z,83.25
2018-03-07T22:43:46.225Z,83.30
2018-03-07T22:46:15.302Z,83.22
2018-03-07T22:48:44.375Z,83.28
2018-03-07T22:51:13.448Z,83.30
2018-03-07T22:53:42.793Z,83.37
2018-03-07T22:56:11.863Z,83.32
2018-03-07T22:58:41.023Z,83.21
2018-03-07T23:01:10.101Z,83.13
2018-03-07T23:03:39.186Z,83.10
2018-03-07T23:06:08.308Z,83.00
2018-03-07T23:08:37.743Z,82.99
2018-03-07T23:11:06.950Z,82.88
2018-03-07T23:13:36.053Z,82.77
2018-03-07T23:16:05.655Z,82.75
2018-03-07T23:18:34.870Z,82.71
2018-03-07T23:21:03.995Z,82.74
2018-03-07T23:23:33.108Z,82.80
2018-03-07T23:26:02.182Z,82.77
2018-03-07T23:28:31.922Z,82.82
2018-03-07T23:31:00.994Z,82.85
2018-03-07T23:33:30.070Z,82.86
2018-03-07T23:35:59.150Z,82.83
2018-03-07T23:38:28.245Z,82.90
2018-03-07T23:40:57.323Z,82.93
2018-03-07T23:43:26.402Z,82.96
2018-03-07T23:45:55.482Z,82.93
2018-03-07T23:48:24.556Z,82.90
2018-03-07T23:50:53.659Z,82.76
2018-03-07T23:53:22.806Z,82.76
2018-03-07T23:55:52.114Z,82.76
2018-03-07T23:58:21.299Z,82.83
